createdAt,value
2023-04-08T00:00:58.480Z,5.68
2023-04-08T00:03:30.626Z,3.80
2023-04-08T00:06:00.854Z,6.97
2023-04-08T00:08:30.548Z,4.03
2023-04-08T00:10:58.928Z,4.15
2023-04-08T00:13:30.924Z,6.35
2023-04-08T00:15:59.310Z,5.53
2023-04-08T00:18:30.580Z,3.28
2023-04-08T00:21:00.015Z,3.80
2023-04-08T00:23:30.613Z,6.68
2023-04-08T00:26:00.031Z,5.57
2023-04-08T00:28:29.545Z,4.82
2023-04-08T00:30:58.176Z,3.53
2023-04-08T00:33:30.167Z,3.85
2023-04-08T00:35:58.556Z,6.15
2023-04-08T00:38:26.802Z,3.30
2023-04-08T00:40:55.149Z,3.45
2023-04-08T00:43:25.086Z,4.47
2023-04-08T00:45:53.410Z,5.35
2023-04-08T00:48:22.967Z,6.13
2023-04-08T00:50:54.287Z,3.42
2023-04-08T00:53:25.750Z,3.30
2023-04-08T00:55:55.444Z,3.00
2023-04-08T00:58:25.003Z,5.28
2023-04-08T01:01:01.503Z,3.35
2023-04-08T01:03:43.592Z,2.28
2023-04-08T01:06:23.926Z,3.17
2023-04-08T01:08:55.150Z,3.30
2023-04-08T01:11:25.000Z,3.30
2023-04-08T01:13:57.376Z,2.90
2023-04-08T01:16:27.391Z,3.25
2023-04-08T01:18:57.706Z,4.65
2023-04-08T01:21:28.934Z,3.45
2023-04-08T01:24:08.970Z,2.83
2023-04-08T01:26:39.522Z,3.30
2023-04-08T01:29:10.266Z,6.00
2023-04-08T01:31:41.708Z,5.30
2023-04-08T01:34:12.734Z,2.92
2023-04-08T01:36:42.358Z,5.15
2023-04-08T01:39:13.269Z,3.50
2023-04-08T01:41:43.407Z,6.30
2023-04-08T01:44:16.329Z,4.43
2023-04-08T01:46:46.424Z,3.53
2023-04-08T01:49:16.975Z,5.35
2023-04-08T01:51:47.498Z,4.38
2023-04-08T01:54:18.259Z,6.75
2023-04-08T01:56:49.109Z,5.82
2023-04-08T01:59:20.779Z,6.00
2023-04-08T02:01:52.068Z,6.75
2023-04-08T02:04:22.893Z,2.92
2023-04-08T02:06:52.520Z,3.58
2023-04-08T02:09:21.952Z,4.15
2023-04-08T02:11:52.857Z,3.90
2023-04-08T02:14:22.653Z,3.90
2023-04-08T02:16:57.096Z,4.50
2023-04-08T02:19:37.386Z,6.93
2023-04-08T02:22:13.270Z,4.25
2023-04-08T02:24:42.165Z,4.20
2023-04-08T02:27:12.535Z,4.70
2023-04-08T02:29:43.605Z,4.85
2023-04-08T02:32:13.688Z,5.70
2023-04-08T02:34:45.987Z,6.97
2023-04-08T02:37:15.525Z,6.82
2023-04-08T02:39:45.101Z,6.32
2023-04-08T02:42:14.754Z,7.10
2023-04-08T02:44:44.244Z,7.32
2023-04-08T02:47:13.775Z,4.70
2023-04-08T02:49:41.924Z,4.80
2023-04-08T02:52:11.308Z,7.18
2023-04-08T02:54:40.851Z,6.95
2023-04-08T02:57:09.146Z,6.53
2023-04-08T02:59:40.959Z,3.10
2023-04-08T03:02:12.478Z,5.57
2023-04-08T03:04:41.949Z,4.05
2023-04-08T03:07:10.930Z,6.97
2023-04-08T03:09:41.751Z,6.55
2023-04-08T03:12:09.997Z,6.30
2023-04-08T03:14:40.924Z,8.13
2023-04-08T03:17:10.612Z,3.53
2023-04-08T03:19:41.649Z,4.28
2023-04-08T03:22:10.772Z,4.50
2023-04-08T03:24:40.697Z,6.60
2023-04-08T03:27:09.691Z,6.13
2023-04-08T03:32:10.167Z,4.03
2023-04-08T03:34:40.867Z,4.78
2023-04-08T03:37:10.352Z,6.88
2023-04-08T03:39:39.291Z,4.85
2023-04-08T03:42:08.711Z,4.93
2023-04-08T03:44:38.126Z,7.00
2023-04-08T03:47:08.850Z,7.07
2023-04-08T03:49:38.293Z,5.80
2023-04-08T03:52:07.069Z,4.20
2023-04-08T03:54:36.688Z,5.28
2023-04-08T03:57:06.116Z,6.32
2023-04-08T03:59:37.693Z,4.68
2023-04-08T04:02:06.307Z,4.55
2023-04-08T04:04:37.361Z,6.95
2023-04-08T04:07:05.619Z,2.95
2023-04-08T04:09:33.933Z,5.15
2023-04-08T04:12:03.368Z,7.88
2023-04-08T04:14:32.857Z,9.45
2023-04-08T04:17:02.270Z,6.60
2023-04-08T04:19:33.806Z,7.25
2023-04-08T04:22:03.386Z,9.70
2023-04-08T04:24:31.668Z,5.55
2023-04-08T04:27:01.111Z,6.55
2023-04-08T04:29:29.323Z,6.10
2023-04-08T04:31:58.710Z,6.10
2023-04-08T04:34:28.067Z,6.97
2023-04-08T04:36:56.627Z,5.03
2023-04-08T04:39:27.615Z,9.55
2023-04-08T04:41:55.855Z,7.00
2023-04-08T04:44:26.810Z,6.20
2023-04-08T04:46:55.049Z,6.97
2023-04-08T04:49:25.798Z,9.57
2023-04-08T04:51:55.477Z,7.43
2023-04-08T04:54:27.765Z,8.85
2023-04-08T04:56:57.197Z,8.80
2023-04-08T04:59:26.723Z,6.90
2023-04-08T05:01:57.680Z,9.63
2023-04-08T05:04:27.521Z,6.82
2023-04-08T05:06:55.759Z,7.50
2023-04-08T05:09:26.655Z,9.32
2023-04-08T05:11:54.862Z,7.47
2023-04-08T05:14:25.717Z,9.25
2023-04-08T05:16:55.145Z,7.75
2023-04-08T05:19:24.671Z,11.02
2023-04-08T05:21:55.556Z,5.22
2023-04-08T05:24:26.438Z,7.05
2023-04-08T05:26:54.632Z,6.88
2023-04-08T05:29:25.482Z,10.32
2023-04-08T05:31:53.780Z,8.02
2023-04-08T05:34:24.883Z,10.27
2023-04-08T05:36:53.170Z,6.25
2023-04-08T05:39:23.874Z,7.35
2023-04-08T05:41:53.715Z,4.20
2023-04-08T05:44:24.382Z,5.65
2023-04-08T05:46:53.806Z,10.25
2023-04-08T05:49:23.270Z,7.60
2023-04-08T05:51:51.726Z,6.47
2023-04-08T05:54:21.201Z,6.40
2023-04-08T05:56:50.831Z,7.53
2023-04-08T05:59:22.817Z,24.13
2023-04-08T06:01:52.424Z,9.40
2023-04-08T06:04:22.221Z,6.22
2023-04-08T06:06:51.758Z,4.95
2023-04-08T06:09:21.574Z,6.18
2023-04-08T06:11:51.534Z,5.63
2023-04-08T06:14:21.699Z,6.43
2023-04-08T06:16:53.205Z,7.60
2023-04-08T06:19:22.841Z,8.52
2023-04-08T06:21:51.698Z,5.80
2023-04-08T06:24:22.434Z,7.63
2023-04-08T06:26:52.599Z,8.07
2023-04-08T06:29:24.297Z,5.07
2023-04-08T06:31:53.858Z,4.75
2023-04-08T06:34:23.549Z,7.53
2023-04-08T06:36:51.920Z,9.25
2023-04-08T06:39:21.615Z,5.88
2023-04-08T06:41:50.019Z,5.05
2023-04-08T06:44:37.896Z,6.57
2023-04-08T06:47:07.292Z,8.25
2023-04-08T06:49:37.328Z,9.38
2023-04-08T06:54:37.490Z,8.15
2023-04-08T06:57:05.835Z,6.03
2023-04-08T06:59:39.815Z,7.22
2023-04-08T07:02:12.513Z,7.30
2023-04-08T07:04:45.517Z,5.45
2023-04-08T07:07:16.407Z,5.40
2023-04-08T07:09:46.829Z,4.75
2023-04-08T07:12:15.741Z,9.10
2023-04-08T07:14:46.470Z,4.43
2023-04-08T07:17:16.035Z,6.72
2023-04-08T07:19:46.115Z,5.68
2023-04-08T07:22:16.165Z,7.10
2023-04-08T07:24:50.785Z,7.15
2023-04-08T07:27:19.049Z,7.93
2023-04-08T07:29:55.943Z,9.18
2023-04-08T07:32:25.538Z,5.93
2023-04-08T07:34:55.273Z,9.27
2023-04-08T07:37:23.567Z,7.90
2023-04-08T07:39:54.172Z,5.65
2023-04-08T07:42:23.771Z,5.07
2023-04-08T07:44:54.838Z,4.88
2023-04-08T07:47:23.184Z,10.55
2023-04-08T07:49:55.749Z,8.80
2023-04-08T07:52:25.313Z,6.20
2023-04-08T07:54:54.877Z,6.40
2023-04-08T07:57:23.635Z,8.57
2023-04-08T07:59:55.851Z,6.60
2023-04-08T08:02:24.266Z,9.05
2023-04-08T08:04:55.001Z,6.45
2023-04-08T08:07:24.637Z,7.72
2023-04-08T08:09:52.878Z,4.03
2023-04-08T08:12:22.408Z,7.85
2023-04-08T08:14:54.806Z,11.13
2023-04-08T08:17:27.712Z,7.03
2023-04-08T08:19:57.901Z,6.10
2023-04-08T08:22:27.667Z,5.93
2023-04-08T08:24:57.959Z,6.75
2023-04-08T08:27:28.767Z,5.25
2023-04-08T08:29:58.525Z,6.13
2023-04-08T08:32:28.213Z,6.47
2023-04-08T08:34:56.891Z,8.88
2023-04-08T08:37:25.159Z,5.07
2023-04-08T08:39:54.780Z,7.85
2023-04-08T08:42:26.083Z,12.85
2023-04-08T08:44:56.486Z,14.27
2023-04-08T08:47:24.912Z,7.13
2023-04-08T08:49:56.323Z,7.65
2023-04-08T08:52:26.333Z,7.78
2023-04-08T08:55:00.113Z,8.05
2023-04-08T08:57:29.679Z,10.13
2023-04-08T08:59:58.058Z,7.82
2023-04-08T09:02:29.066Z,8.88
2023-04-08T09:05:02.632Z,15.10
2023-04-08T09:07:38.116Z,6.03
2023-04-08T09:10:10.617Z,9.45
2023-04-08T09:12:57.675Z,6.25
2023-04-08T09:15:27.506Z,5.97
2023-04-08T09:17:58.596Z,4.95
2023-04-08T09:20:30.827Z,6.85
2023-04-08T09:23:01.692Z,8.23
2023-04-08T09:25:33.858Z,6.30
2023-04-08T09:28:03.530Z,5.90
2023-04-08T09:30:35.311Z,8.70
2023-04-08T09:33:07.450Z,6.82
2023-04-08T09:35:37.628Z,8.07
2023-04-08T09:38:06.080Z,7.88
2023-04-08T09:40:37.986Z,9.88
2023-04-08T09:43:10.446Z,9.80
2023-04-08T09:45:43.010Z,9.50
2023-04-08T09:48:18.329Z,9.77
2023-04-08T09:50:53.745Z,10.35
2023-04-08T09:53:31.842Z,9.68
2023-04-08T09:56:04.626Z,10.48
2023-04-08T09:58:47.177Z,12.00
2023-04-08T10:01:23.662Z,10.65
2023-04-08T10:03:58.244Z,9.13
2023-04-08T10:06:32.536Z,10.18
2023-04-08T10:09:04.347Z,8.20
2023-04-08T10:11:34.911Z,8.52
2023-04-08T10:14:04.541Z,8.55
2023-04-08T10:16:32.861Z,9.50
2023-04-08T10:19:02.641Z,7.72
2023-04-08T10:24:09.932Z,9.25
2023-04-08T10:26:43.530Z,7.85
2023-04-08T10:29:34.952Z,11.38
2023-04-08T10:32:04.602Z,13.18
2023-04-08T10:34:34.037Z,8.52
2023-04-08T10:37:05.618Z,14.43
2023-04-08T10:39:36.323Z,10.65
2023-04-08T10:42:13.432Z,9.23
2023-04-08T10:44:47.148Z,8.13
2023-04-08T10:47:16.919Z,8.45
2023-04-08T10:49:47.481Z,9.30
2023-04-08T10:52:21.316Z,10.57
2023-04-08T10:54:49.721Z,7.32
2023-04-08T10:57:24.847Z,12.13
2023-04-08T10:59:53.513Z,12.00
2023-04-08T11:02:21.839Z,10.80
2023-04-08T11:04:51.423Z,10.73
2023-04-08T11:07:24.404Z,8.63
2023-04-08T11:09:53.888Z,11.55
2023-04-08T11:12:23.441Z,11.57
2023-04-08T11:14:53.939Z,8.50
2023-04-08T11:17:24.206Z,10.35
2023-04-08T11:19:53.920Z,8.73
2023-04-08T11:22:26.025Z,10.57
2023-04-08T11:24:57.212Z,8.80
2023-04-08T11:27:26.232Z,8.23
2023-04-08T11:29:56.979Z,9.02
2023-04-08T11:32:27.059Z,10.05
2023-04-08T11:34:55.658Z,9.07
2023-04-08T11:37:29.908Z,10.90
2023-04-08T11:39:59.449Z,11.15
2023-04-08T11:42:28.929Z,8.65
2023-04-08T11:44:57.843Z,7.05
2023-04-08T11:47:34.723Z,9.77
2023-04-08T11:50:05.195Z,9.05
2023-04-08T11:52:47.472Z,11.18
2023-04-08T11:55:25.525Z,8.75
2023-04-08T11:57:54.924Z,8.40
2023-04-08T12:00:24.762Z,10.75
2023-04-08T12:02:53.743Z,8.73
2023-04-08T12:05:22.494Z,9.25
2023-04-08T12:10:21.803Z,7.88
2023-04-08T12:12:52.430Z,9.05
2023-04-08T12:15:21.976Z,12.07
2023-04-08T12:17:51.724Z,6.95
2023-04-08T12:20:21.724Z,9.48
2023-04-08T12:22:52.526Z,12.13
2023-04-08T12:25:22.534Z,11.88
2023-04-08T12:27:53.482Z,12.55
2023-04-08T12:30:22.393Z,13.05
2023-04-08T12:32:54.549Z,9.30
2023-04-08T12:35:24.405Z,9.20
2023-04-08T12:37:55.321Z,10.32
2023-04-08T12:40:23.773Z,11.90
2023-04-08T12:42:53.321Z,10.38
2023-04-08T12:45:23.048Z,11.07
2023-04-08T12:47:52.600Z,12.18
2023-04-08T12:50:22.277Z,10.50
2023-04-08T12:52:51.756Z,12.45
2023-04-08T12:55:25.027Z,13.02
2023-04-08T12:57:53.458Z,12.05
2023-04-08T13:00:21.818Z,7.63
2023-04-08T13:02:50.220Z,11.63
2023-04-08T13:05:21.665Z,12.80
2023-04-08T13:07:59.205Z,12.88
2023-04-08T13:10:28.976Z,13.63
2023-04-08T13:12:57.586Z,9.88
2023-04-08T13:22:55.933Z,14.95
2023-04-08T13:25:24.863Z,14.10
2023-04-08T13:27:55.740Z,10.43
2023-04-08T13:30:24.215Z,11.00
2023-04-08T13:32:53.773Z,15.55
2023-04-08T13:35:22.729Z,12.48
2023-04-08T13:37:52.280Z,11.13
2023-04-08T13:40:21.372Z,11.25
2023-04-08T13:42:49.721Z,10.73
2023-04-08T13:45:19.437Z,13.57
2023-04-08T13:47:50.253Z,13.43
2023-04-08T13:50:18.670Z,11.15
2023-04-08T13:52:49.334Z,13.38
2023-04-08T13:55:17.990Z,9.73
2023-04-08T13:57:48.687Z,10.90
2023-04-08T14:00:19.653Z,11.38
2023-04-08T14:02:51.774Z,13.50
2023-04-08T14:05:21.321Z,12.63
2023-04-08T14:07:52.022Z,11.85
2023-04-08T14:10:20.325Z,11.77
2023-04-08T14:12:49.813Z,13.55
2023-04-08T14:15:20.699Z,12.63
2023-04-08T14:17:50.366Z,12.13
2023-04-08T14:20:20.008Z,11.15
2023-04-08T14:22:49.491Z,13.00
2023-04-08T14:25:17.903Z,11.45
2023-04-08T14:27:57.815Z,12.55
2023-04-08T14:30:28.868Z,12.77
2023-04-08T14:32:59.265Z,12.40
2023-04-08T14:35:28.909Z,12.18
2023-04-08T14:37:58.767Z,13.65
2023-04-08T14:40:28.573Z,11.80
2023-04-08T14:42:58.120Z,9.07
2023-04-08T14:45:29.153Z,17.13
2023-04-08T14:47:58.718Z,11.35
2023-04-08T14:50:30.856Z,13.00
2023-04-08T14:53:02.466Z,14.27
2023-04-08T14:55:32.529Z,12.65
2023-04-08T14:58:04.600Z,12.15
2023-04-08T15:00:34.334Z,17.92
2023-04-08T15:03:05.224Z,11.68
2023-04-08T15:05:36.183Z,9.65
2023-04-08T15:08:05.260Z,12.45
2023-04-08T15:10:33.568Z,13.40
2023-04-08T15:13:02.270Z,13.23
2023-04-08T15:15:33.453Z,14.25
2023-04-08T15:18:04.620Z,10.60
2023-04-08T15:20:34.254Z,19.33
2023-04-08T15:23:05.449Z,13.57
2023-04-08T15:25:33.908Z,32.25
2023-04-08T15:28:04.858Z,11.20
2023-04-08T15:30:36.179Z,11.10
2023-04-08T15:33:06.627Z,12.15
2023-04-08T15:35:38.604Z,13.45
2023-04-08T15:38:09.883Z,15.52
2023-04-08T15:40:38.224Z,10.25
2023-04-08T15:43:08.005Z,12.27
2023-04-08T15:45:44.268Z,13.40
2023-04-08T15:48:15.062Z,10.18
2023-04-08T15:50:44.599Z,13.32
2023-04-08T15:53:13.214Z,11.57
2023-04-08T15:55:43.404Z,9.07
2023-04-08T15:58:15.293Z,13.43
2023-04-08T16:00:46.474Z,12.45
2023-04-08T16:03:16.245Z,12.45
2023-04-08T16:05:44.946Z,12.25
2023-04-08T16:08:14.456Z,11.13
2023-04-08T16:10:44.308Z,10.07
2023-04-08T16:13:12.774Z,13.77
2023-04-08T16:15:42.727Z,14.15
2023-04-08T16:18:14.625Z,11.07
2023-04-08T16:20:44.207Z,13.88
2023-04-08T16:23:15.527Z,15.63
2023-04-08T16:25:45.296Z,15.15
2023-04-08T16:28:13.868Z,14.35
2023-04-08T16:30:44.127Z,15.52
2023-04-08T16:33:13.813Z,19.35
2023-04-08T16:35:44.484Z,15.98
2023-04-08T16:38:15.396Z,22.83
2023-04-08T16:40:43.638Z,12.18
2023-04-08T16:43:14.180Z,14.32
2023-04-08T16:45:42.711Z,16.88
2023-04-08T16:48:14.980Z,17.33
2023-04-08T16:50:44.436Z,15.57
2023-04-08T16:53:15.169Z,18.05
2023-04-08T16:55:44.728Z,13.68
2023-04-08T16:58:14.206Z,13.77
2023-04-08T17:00:42.703Z,25.15
2023-04-08T17:03:14.902Z,12.13
2023-04-08T17:05:43.735Z,19.98
2023-04-08T17:10:41.443Z,25.30
2023-04-08T17:13:13.589Z,17.98
2023-04-08T17:15:44.643Z,15.00
2023-04-08T17:20:44.611Z,17.70
2023-04-08T17:23:15.289Z,12.68
2023-04-08T17:25:44.913Z,12.23
2023-04-08T17:28:14.636Z,16.25
2023-04-08T17:30:44.386Z,12.18
2023-04-08T17:33:15.538Z,14.73
2023-04-08T17:35:45.029Z,15.65
2023-04-08T17:38:15.829Z,12.50
2023-04-08T17:40:44.135Z,16.77
2023-04-08T17:43:12.907Z,20.38
2023-04-08T17:45:41.488Z,14.32
2023-04-08T17:48:11.056Z,17.65
2023-04-08T17:50:42.095Z,22.50
2023-04-08T17:53:11.567Z,16.38
2023-04-08T17:55:41.173Z,14.20
2023-04-08T17:58:10.627Z,15.00
2023-04-08T18:00:40.658Z,15.15
2023-04-08T18:03:10.902Z,12.15
2023-04-08T18:05:39.390Z,18.58
2023-04-08T18:08:10.613Z,16.42
2023-04-08T18:10:40.008Z,17.67
2023-04-08T18:13:11.792Z,16.52
2023-04-08T18:15:42.139Z,19.30
2023-04-08T18:18:11.897Z,16.73
2023-04-08T18:20:41.911Z,16.48
2023-04-08T18:23:12.833Z,12.77
2023-04-08T18:25:44.527Z,14.45
2023-04-08T18:28:15.171Z,13.15
2023-04-08T18:30:43.753Z,16.25
2023-04-08T18:33:13.279Z,10.82
2023-04-08T18:35:43.327Z,15.10
2023-04-08T18:38:14.187Z,17.85
2023-04-08T18:40:45.689Z,12.73
2023-04-08T18:43:15.972Z,16.92
2023-04-08T18:45:44.381Z,15.98
2023-04-08T18:48:14.956Z,24.88
2023-04-08T18:50:44.218Z,16.88
2023-04-08T18:53:16.329Z,17.63
2023-04-08T18:55:44.983Z,15.63
2023-04-08T18:58:14.705Z,14.35
2023-04-08T19:00:44.096Z,11.95
2023-04-08T19:03:12.865Z,14.75
2023-04-08T19:05:41.196Z,15.45
2023-04-08T19:08:10.824Z,14.20
2023-04-08T19:10:42.874Z,15.30
2023-04-08T19:13:12.224Z,14.88
2023-04-08T19:15:43.014Z,14.25
2023-04-08T19:18:11.783Z,16.85
2023-04-08T19:23:08.233Z,20.08
2023-04-08T19:25:39.107Z,11.10
2023-04-08T19:28:10.408Z,16.45
2023-04-08T19:30:40.522Z,12.32
2023-04-08T19:33:10.070Z,9.98
2023-04-08T19:35:38.757Z,12.68
2023-04-08T19:38:07.009Z,12.52
2023-04-08T19:40:36.473Z,13.07
2023-04-08T19:43:06.351Z,11.90
2023-04-08T19:45:37.288Z,12.38
2023-04-08T19:48:07.587Z,12.15
2023-04-08T19:50:39.171Z,15.73
2023-04-08T19:53:07.464Z,13.05
2023-04-08T19:55:38.866Z,13.07
2023-04-08T19:58:07.903Z,15.25
2023-04-08T20:00:38.524Z,14.63
2023-04-08T20:03:07.934Z,13.35
2023-04-08T20:05:40.600Z,17.55
2023-04-08T20:08:10.193Z,15.73
2023-04-08T20:10:41.311Z,17.42
2023-04-08T20:13:10.989Z,21.65
2023-04-08T20:15:41.867Z,16.70
2023-04-08T20:18:11.761Z,23.92
2023-04-08T20:20:41.324Z,21.02
2023-04-08T20:23:10.864Z,25.77
2023-04-08T20:25:39.261Z,24.88
2023-04-08T20:28:08.387Z,35.22
2023-04-08T20:30:37.873Z,22.92
2023-04-08T20:33:08.770Z,32.60
2023-04-08T20:35:40.789Z,37.80
2023-04-08T20:38:09.725Z,26.88
2023-04-08T20:40:43.926Z,30.00
2023-04-08T20:43:13.436Z,26.27
2023-04-08T20:45:41.716Z,23.80
2023-04-08T20:48:12.540Z,23.58
2023-04-08T20:50:42.005Z,23.98
2023-04-08T20:53:10.372Z,22.38
2023-04-08T20:55:40.265Z,27.77
2023-04-08T20:58:09.751Z,23.73
2023-04-08T21:00:39.295Z,24.48
2023-04-08T21:03:07.676Z,26.38
2023-04-08T21:05:42.048Z,30.83
2023-04-08T21:08:10.466Z,23.23
2023-04-08T21:10:39.882Z,24.08
2023-04-08T21:13:09.531Z,22.60
2023-04-08T21:15:39.023Z,25.00
2023-04-08T21:18:11.026Z,23.50
2023-04-08T21:20:42.198Z,27.48
2023-04-08T21:23:12.928Z,22.83
2023-04-08T21:25:42.411Z,28.63
2023-04-08T21:28:11.791Z,26.00
2023-04-08T21:30:41.896Z,29.83
2023-04-08T21:33:11.374Z,25.67
2023-04-08T21:35:42.258Z,34.17
2023-04-08T21:38:11.692Z,28.58
2023-04-08T21:40:42.468Z,27.25
2023-04-08T21:43:10.758Z,29.33
2023-04-08T21:45:39.079Z,31.73
2023-04-08T21:48:08.744Z,29.50
2023-04-08T21:50:39.140Z,29.83
2023-04-08T21:53:09.899Z,32.38
2023-04-08T21:55:39.326Z,27.27
2023-04-08T21:58:08.994Z,25.80
2023-04-08T22:00:40.042Z,27.23
2023-04-08T22:03:09.686Z,26.52
2023-04-08T22:05:39.608Z,28.90
2023-04-08T22:08:09.164Z,32.30
2023-04-08T22:10:39.010Z,27.42
2023-04-08T22:13:07.281Z,25.02
2023-04-08T22:15:36.819Z,23.58
2023-04-08T22:18:05.858Z,25.80
2023-04-08T22:20:37.711Z,26.65
2023-04-08T22:23:05.966Z,22.30
2023-04-08T22:25:35.530Z,28.73
2023-04-08T22:28:07.044Z,28.95
2023-04-08T22:30:36.935Z,25.48
2023-04-08T22:33:06.344Z,23.50
2023-04-08T22:35:34.586Z,25.35
2023-04-08T22:38:04.083Z,34.47
2023-04-08T22:40:33.438Z,34.97
2023-04-08T22:43:04.703Z,29.65
2023-04-08T22:45:34.086Z,34.95
2023-04-08T22:48:02.334Z,34.13
2023-04-08T22:50:31.779Z,34.05
2023-04-08T22:53:01.860Z,31.45
2023-04-08T22:55:32.655Z,26.85
2023-04-08T22:58:03.682Z,26.42
2023-04-08T23:00:34.304Z,29.45
2023-04-08T23:03:04.912Z,24.65
2023-04-08T23:05:34.588Z,29.35
2023-04-08T23:08:02.826Z,27.27
2023-04-08T23:10:33.455Z,30.45
2023-04-08T23:13:03.094Z,32.40
2023-04-08T23:15:31.963Z,32.25
2023-04-08T23:18:01.492Z,32.38
2023-04-08T23:20:30.955Z,32.25
2023-04-08T23:23:00.471Z,35.17
2023-04-08T23:25:29.949Z,32.90
2023-04-08T23:27:58.193Z,31.60
2023-04-08T23:30:30.328Z,41.50
2023-04-08T23:32:59.729Z,37.78
2023-04-08T23:35:29.258Z,34.60
2023-04-08T23:37:58.701Z,40.60
2023-04-08T23:40:27.167Z,37.40
2023-04-08T23:42:55.368Z,32.83
2023-04-08T23:45:23.558Z,33.72
2023-04-08T23:47:54.823Z,36.90
2023-04-08T23:50:24.248Z,27.02
2023-04-08T23:52:53.734Z,41.05
2023-04-08T23:55:23.526Z,34.10
2023-04-08T23:57:53.771Z,37.83
